Time;durP1;ratioP1;P1;durP2;ratioP2;P2;SDS_P1;SDS_P2;PMS_P1;PMS_P2;Temp;Humidity;BMP_temperature;BMP_pressure;BME280_temperature;BME280_humidity;BME280_pressure;Samples;Min_cycle;Max_cycle;Signal;HPM_P1;HPM_P2
2023/12/02 00:01:11;;;;;;;6.15;2.20;;;24.70;99.00;;;;;;5033574;28;20038;-71
2023/12/02 00:03:38;;;;;;;5.38;2.40;;;24.80;99.00;;;;;;5013571;28;20022;-70
2023/12/02 00:06:06;;;;;;;8.98;2.40;;;24.80;97.60;;;;;;5034006;28;20030;-70
2023/12/02 00:08:33;;;;;;;5.80;1.98;;;24.80;97.20;;;;;;5030135;28;20033;-70
2023/12/02 00:11:00;;;;;;;6.40;1.77;;;24.90;96.50;;;;;;5036122;28;20095;-70
2023/12/02 00:13:28;;;;;;;5.13;2.10;;;24.90;97.20;;;;;;5033700;28;20633;-70
2023/12/02 00:15:55;;;;;;;9.02;2.28;;;25.20;95.90;;;;;;5029139;28;20053;-71
2023/12/02 00:18:23;;;;;;;6.45;1.90;;;24.90;96.30;;;;;;5030338;28;20053;-70
2023/12/02 00:20:50;;;;;;;8.75;2.10;;;25.10;96.00;;;;;;5023365;28;20056;-70
2023/12/02 00:23:17;;;;;;;4.57;1.70;;;25.50;96.20;;;;;;5028881;28;20030;-70
2023/12/02 00:25:45;;;;;;;5.22;1.40;;;25.50;95.30;;;;;;5033265;28;20355;-70
2023/12/02 00:28:12;;;;;;;9.35;1.83;;;25.50;94.30;;;;;;5029287;28;20068;-71
2023/12/02 00:30:40;;;;;;;2.40;1.55;;;25.40;94.60;;;;;;5029054;28;20136;-69
2023/12/02 00:33:08;;;;;;;8.43;2.13;;;25.50;94.50;;;;;;5031454;28;20025;-69
2023/12/02 00:35:35;;;;;;;4.68;1.95;;;25.60;94.20;;;;;;5026291;28;20109;-69
2023/12/02 00:38:02;;;;;;;3.75;1.58;;;25.70;94.10;;;;;;5027720;28;20025;-69
2023/12/02 00:40:30;;;;;;;5.15;1.58;;;26.10;93.60;;;;;;5026732;28;20065;-69
2023/12/02 00:42:57;;;;;;;5.07;1.75;;;26.00;93.30;;;;;;5024993;28;20066;-71
2023/12/02 00:45:24;;;;;;;4.38;1.50;;;26.10;93.20;;;;;;5033850;28;20216;-71
2023/12/02 00:47:52;;;;;;;7.65;2.10;;;26.20;93.10;;;;;;5041883;28;20108;-70
2023/12/02 00:50:19;;;;;;;4.30;1.65;;;26.10;93.50;;;;;;5032401;28;20043;-69
2023/12/02 00:52:46;;;;;;;5.07;1.73;;;26.10;92.00;;;;;;5036588;28;20017;-70
2023/12/02 00:55:14;;;;;;;3.25;1.50;;;26.20;92.30;;;;;;5035530;28;20116;-68
2023/12/02 00:57:41;;;;;;;3.83;1.30;;;25.90;93.20;;;;;;5034811;28;20079;-69
2023/12/02 01:00:09;;;;;;;7.38;1.77;;;26.10;92.40;;;;;;5038559;28;20054;-69
2023/12/02 01:02:37;;;;;;;4.43;1.42;;;26.10;92.40;;;;;;5038814;28;20056;-72
2023/12/02 01:05:04;;;;;;;6.55;1.38;;;26.00;92.20;;;;;;5035504;28;20064;-69
2023/12/02 01:07:32;;;;;;;4.55;1.67;;;25.90;92.40;;;;;;5024367;28;20114;-71
2023/12/02 01:10:00;;;;;;;5.63;1.73;;;25.80;92.80;;;;;;5036151;28;20121;-71
2023/12/02 01:12:27;;;;;;;2.85;1.40;;;25.60;93.60;;;;;;5039396;28;20055;-70
2023/12/02 01:14:54;;;;;;;4.07;1.48;;;25.70;93.10;;;;;;5022175;28;20026;-70
2023/12/02 01:17:22;;;;;;;5.10;1.65;;;25.70;92.60;;;;;;5022293;28;20045;-71
2023/12/02 01:19:49;;;;;;;5.88;1.40;;;25.70;93.40;;;;;;5036632;28;20049;-69
2023/12/02 01:22:16;;;;;;;4.00;1.80;;;25.60;93.10;;;;;;5035577;28;20441;-70
2023/12/02 01:24:44;;;;;;;5.50;1.45;;;25.60;93.00;;;;;;5033587;28;20039;-70
2023/12/02 01:27:11;;;;;;;3.90;1.70;;;25.50;93.30;;;;;;5036212;28;20087;-70
2023/12/02 01:29:38;;;;;;;4.97;1.58;;;25.50;93.40;;;;;;5034161;28;20025;-71
2023/12/02 01:32:06;;;;;;;3.58;1.48;;;25.60;93.30;;;;;;5037257;28;20021;-70
2023/12/02 01:34:33;;;;;;;4.30;1.70;;;25.40;93.50;;;;;;5035545;28;20043;-69
2023/12/02 01:37:01;;;;;;;7.05;1.83;;;25.40;93.40;;;;;;5037960;28;20021;-70
2023/12/02 01:39:28;;;;;;;3.42;1.27;;;25.40;93.80;;;;;;5033396;28;20029;-70
2023/12/02 01:41:55;;;;;;;5.35;1.63;;;25.50;93.40;;;;;;5035806;28;20096;-70
2023/12/02 01:44:23;;;;;;;7.18;2.03;;;25.80;93.30;;;;;;5033125;28;20048;-70
2023/12/02 01:46:50;;;;;;;4.30;1.30;;;26.00;92.30;;;;;;5032212;28;20535;-70
2023/12/02 01:49:18;;;;;;;9.27;1.60;;;25.80;92.70;;;;;;5040419;28;20064;-70
2023/12/02 01:51:46;;;;;;;3.30;1.10;;;25.80;92.50;;;;;;5027027;28;20500;-70
2023/12/02 01:54:13;;;;;;;6.95;1.65;;;25.90;92.60;;;;;;5029160;28;20124;-70
2023/12/02 01:56:41;;;;;;;8.52;1.83;;;26.10;92.00;;;;;;5032829;28;20032;-70
2023/12/02 01:59:09;;;;;;;6.40;1.70;;;26.30;92.30;;;;;;5032159;28;20064;-71
2023/12/02 02:01:36;;;;;;;3.92;1.48;;;26.70;92.20;;;;;;5033744;28;20036;-71
2023/12/02 02:04:04;;;;;;;4.38;1.40;;;26.80;91.70;;;;;;5035926;28;20036;-71
2023/12/02 02:06:32;;;;;;;3.92;1.33;;;26.70;91.90;;;;;;5026881;28;20018;-71
2023/12/02 02:08:59;;;;;;;3.63;1.33;;;26.80;92.00;;;;;;5028873;28;20457;-70
2023/12/02 02:11:27;;;;;;;5.20;1.60;;;27.00;91.30;;;;;;5026460;28;20026;-70
2023/12/02 02:13:54;;;;;;;6.50;1.60;;;27.00;91.00;;;;;;5034092;28;20478;-70
2023/12/02 02:16:21;;;;;;;4.97;1.40;;;26.40;91.40;;;;;;5036331;28;20083;-69
2023/12/02 02:18:49;;;;;;;5.15;1.48;;;26.60;91.00;;;;;;5026298;28;20025;-71
2023/12/02 02:21:21;;;;;;;3.22;1.10;;;26.70;91.20;;;;;;5015042;28;20025;-70
2023/12/02 02:23:49;;;;;;;4.45;1.40;;;26.90;90.30;;;;;;5026585;28;20116;-71
2023/12/02 02:26:16;;;;;;;3.78;1.42;;;26.80;90.50;;;;;;5032303;28;20062;-71
2023/12/02 02:28:43;;;;;;;3.75;1.40;;;26.60;90.40;;;;;;5034616;28;20075;-70
2023/12/02 02:31:11;;;;;;;5.50;1.38;;;26.50;91.80;;;;;;5029953;28;20025;-71
2023/12/02 02:33:38;;;;;;;2.75;1.08;;;26.60;91.80;;;;;;5033086;28;20068;-71
2023/12/02 02:36:05;;;;;;;4.57;0.95;;;26.80;91.50;;;;;;5034998;28;20057;-69
2023/12/02 02:38:33;;;;;;;4.78;1.63;;;27.00;90.00;;;;;;5032533;28;20025;-71
2023/12/02 02:41:00;;;;;;;5.30;1.40;;;27.30;90.30;;;;;;5033817;28;20105;-71
2023/12/02 02:43:27;;;;;;;5.00;1.45;;;27.80;88.80;;;;;;5035951;28;20140;-71
2023/12/02 02:45:55;;;;;;;5.90;1.58;;;27.80;89.40;;;;;;5024800;28;20433;-70
2023/12/02 02:48:22;;;;;;;6.25;1.40;;;28.10;88.70;;;;;;5035230;28;20082;-70
2023/12/02 02:50:49;;;;;;;3.13;1.33;;;28.30;90.20;;;;;;5031762;28;20022;-69
2023/12/02 02:53:17;;;;;;;4.85;2.00;;;28.60;87.40;;;;;;5032907;28;20028;-69
2023/12/02 02:55:45;;;;;;;4.80;1.40;;;28.50;87.10;;;;;;5034669;28;20431;-70
2023/12/02 02:58:13;;;;;;;4.15;1.23;;;28.70;83.60;;;;;;5033757;28;20442;-71
2023/12/02 03:00:40;;;;;;;5.90;1.35;;;28.70;80.80;;;;;;5032401;28;20053;-70
2023/12/02 03:03:08;;;;;;;5.57;1.45;;;28.50;82.10;;;;;;5031557;28;20456;-70
2023/12/02 03:05:35;;;;;;;3.78;1.20;;;28.40;85.00;;;;;;5035532;28;20121;-71
2023/12/02 03:08:02;;;;;;;1.95;0.93;;;28.50;81.40;;;;;;5034519;28;20067;-70
2023/12/02 03:10:30;;;;;;;2.30;1.00;;;28.10;79.70;;;;;;5035153;28;20021;-70
2023/12/02 03:12:57;;;;;;;4.68;0.90;;;28.00;84.00;;;;;;5034158;28;20078;-70
2023/12/02 03:15:24;;;;;;;4.82;0.95;;;28.10;83.30;;;;;;5034237;28;20410;-70
2023/12/02 03:17:52;;;;;;;3.58;1.02;;;28.70;80.90;;;;;;5032950;28;20025;-70
2023/12/02 03:20:19;;;;;;;4.20;0.98;;;29.50;79.50;;;;;;5036016;28;20044;-70
2023/12/02 03:22:46;;;;;;;2.75;0.80;;;30.10;76.40;;;;;;5028025;28;20387;-71
2023/12/02 03:25:14;;;;;;;2.72;0.95;;;29.90;74.90;;;;;;5030787;28;20075;-71
2023/12/02 03:27:42;;;;;;;3.13;1.25;;;29.50;75.60;;;;;;5022111;28;20116;-70
2023/12/02 03:30:10;;;;;;;2.80;0.85;;;29.00;76.90;;;;;;5032916;28;20753;-71
2023/12/02 03:32:38;;;;;;;6.88;1.00;;;28.90;79.30;;;;;;5031166;28;20037;-70
2023/12/02 03:35:09;;;;;;;3.75;1.02;;;28.90;79.00;;;;;;5035464;28;20504;-69
2023/12/02 03:37:37;;;;;;;2.50;1.05;;;29.30;76.40;;;;;;5028899;28;20026;-71
2023/12/02 03:40:07;;;;;;;4.78;1.30;;;29.00;77.20;;;;;;5034288;28;20100;-70
2023/12/02 03:42:34;;;;;;;5.18;1.00;;;29.20;78.10;;;;;;5027598;28;20253;-70
2023/12/02 03:45:02;;;;;;;7.35;1.25;;;29.20;78.00;;;;;;5026155;28;20041;-70
2023/12/02 03:47:29;;;;;;;5.82;1.10;;;29.30;77.20;;;;;;5033836;28;20101;-69
2023/12/02 03:49:57;;;;;;;2.47;1.00;;;29.10;77.40;;;;;;5022483;28;20442;-70
2023/12/02 03:52:24;;;;;;;3.30;0.93;;;29.20;77.80;;;;;;5011319;28;20025;-69
2023/12/02 03:54:51;;;;;;;3.60;1.00;;;29.40;77.30;;;;;;5025134;28;20010;-70
2023/12/02 03:57:19;;;;;;;2.88;0.73;;;29.30;75.40;;;;;;5025730;28;20026;-70
2023/12/02 03:59:46;;;;;;;3.42;1.13;;;29.40;76.30;;;;;;5028159;28;20499;-70
2023/12/02 04:02:14;;;;;;;3.55;0.80;;;29.50;76.20;;;;;;5028224;28;20072;-71
2023/12/02 04:04:41;;;;;;;4.82;1.05;;;29.70;76.30;;;;;;5027392;28;20043;-70
2023/12/02 04:07:09;;;;;;;2.90;1.08;;;29.70;74.20;;;;;;5032823;28;20025;-72
2023/12/02 04:09:36;;;;;;;7.53;1.25;;;29.60;75.90;;;;;;5030015;28;20021;-71
2023/12/02 04:12:04;;;;;;;2.83;1.30;;;29.70;75.30;;;;;;5030956;28;20345;-71
2023/12/02 04:14:31;;;;;;;4.07;0.90;;;29.60;74.70;;;;;;5038667;28;20025;-72
2023/12/02 04:16:58;;;;;;;3.53;1.13;;;29.40;75.20;;;;;;5031125;28;20022;-70
2023/12/02 04:19:26;;;;;;;2.30;0.95;;;29.10;75.60;;;;;;5016178;28;20489;-70
2023/12/02 04:21:53;;;;;;;3.40;1.27;;;29.00;76.00;;;;;;5032340;28;20024;-72
2023/12/02 04:24:20;;;;;;;5.45;1.00;;;28.70;76.20;;;;;;5030674;28;20068;-72
2023/12/02 04:26:47;;;;;;;5.05;1.20;;;28.30;77.80;;;;;;5034735;28;20113;-71
2023/12/02 04:29:15;;;;;;;2.75;0.95;;;28.40;77.90;;;;;;5035016;28;20040;-71
2023/12/02 04:31:42;;;;;;;2.63;1.10;;;28.70;78.50;;;;;;5036735;28;20037;-70
2023/12/02 04:34:09;;;;;;;2.08;0.75;;;29.10;76.70;;;;;;5034072;28;20021;-70
2023/12/02 04:36:37;;;;;;;2.22;0.80;;;29.60;75.60;;;;;;5019718;28;20026;-70
2023/12/02 04:39:04;;;;;;;2.83;0.90;;;29.80;73.80;;;;;;5019038;28;20029;-70
2023/12/02 04:41:31;;;;;;;2.50;0.95;;;29.80;73.80;;;;;;5038175;28;20059;-71
2023/12/02 04:43:59;;;;;;;5.15;1.50;;;29.60;73.50;;;;;;5034815;28;20025;-71
2023/12/02 04:46:27;;;;;;;7.20;1.35;;;29.60;75.00;;;;;;5018995;28;20044;-71
2023/12/02 04:48:54;;;;;;;2.30;1.02;;;29.20;76.30;;;;;;5036219;28;20422;-71
2023/12/02 04:51:21;;;;;;;9.48;1.60;;;28.90;76.00;;;;;;5033565;28;20061;-71
2023/12/02 04:53:49;;;;;;;11.80;3.80;;;28.80;75.90;;;;;;5032963;28;20524;-71
2023/12/02 04:56:16;;;;;;;4.05;1.20;;;28.70;76.70;;;;;;5019862;28;20036;-71
2023/12/02 04:58:43;;;;;;;3.05;1.05;;;28.80;76.60;;;;;;5034209;28;20026;-71
2023/12/02 05:01:11;;;;;;;4.70;0.90;;;28.80;76.90;;;;;;5031411;28;20628;-71
2023/12/02 05:03:38;;;;;;;5.57;1.48;;;28.60;77.10;;;;;;5037192;28;20467;-71
2023/12/02 05:06:07;;;;;;;4.57;1.08;;;28.50;78.00;;;;;;5029650;28;20033;-71
2023/12/02 05:08:35;;;;;;;3.25;1.08;;;28.50;77.20;;;;;;5032122;28;20029;-71
2023/12/02 05:11:02;;;;;;;2.38;1.20;;;28.60;77.30;;;;;;5038430;28;20343;-70
2023/12/02 05:13:29;;;;;;;9.85;1.33;;;28.60;77.70;;;;;;5031474;28;20030;-71
2023/12/02 05:15:57;;;;;;;2.78;0.90;;;28.40;78.00;;;;;;5019971;28;20390;-71
2023/12/02 05:18:24;;;;;;;1.90;0.75;;;28.30;78.40;;;;;;5034878;28;20030;-71
2023/12/02 05:20:51;;;;;;;1.75;0.70;;;28.20;78.60;;;;;;5032566;28;20167;-69
2023/12/02 05:23:19;;;;;;;4.68;1.40;;;28.20;79.60;;;;;;5030502;28;20021;-69
2023/12/02 05:25:46;;;;;;;3.33;1.50;;;28.40;80.00;;;;;;5026903;28;20034;-71
2023/12/02 05:28:14;;;;;;;3.85;1.25;;;28.40;80.30;;;;;;5033365;28;20032;-71
2023/12/02 05:30:41;;;;;;;6.18;1.50;;;28.70;78.60;;;;;;5042257;28;20087;-71
2023/12/02 05:33:09;;;;;;;2.58;1.02;;;29.00;78.80;;;;;;5025300;28;20017;-70
2023/12/02 05:35:36;;;;;;;4.82;1.38;;;29.00;76.20;;;;;;5028011;28;20108;-71
2023/12/02 05:38:03;;;;;;;5.70;1.45;;;29.20;75.20;;;;;;5029183;28;20063;-70
2023/12/02 05:40:31;;;;;;;5.57;1.00;;;29.40;75.40;;;;;;5028859;28;20022;-71
2023/12/02 05:42:58;;;;;;;4.10;1.58;;;29.50;75.50;;;;;;5029277;28;20026;-70
2023/12/02 05:45:25;;;;;;;7.80;1.83;;;29.30;82.10;;;;;;5035177;28;20433;-72
2023/12/02 05:47:52;;;;;;;7.85;2.08;;;29.00;83.60;;;;;;5019926;28;20447;-73
2023/12/02 05:50:20;;;;;;;5.72;1.58;;;28.60;84.40;;;;;;5034118;28;20056;-71
2023/12/02 05:52:47;;;;;;;5.72;1.48;;;28.30;86.10;;;;;;5019018;28;20397;-71
2023/12/02 05:55:14;;;;;;;9.23;1.92;;;28.10;87.30;;;;;;5031751;28;20063;-71
2023/12/02 05:57:44;;;;;;;4.82;1.63;;;28.30;88.30;;;;;;5036247;28;20021;-71
2023/12/02 06:00:12;;;;;;;5.32;1.35;;;28.50;88.00;;;;;;5032892;28;20095;-72
2023/12/02 06:02:39;;;;;;;4.70;1.42;;;28.70;86.60;;;;;;5011086;28;20036;-71
2023/12/02 06:05:07;;;;;;;6.35;1.48;;;28.70;86.00;;;;;;5031004;28;20044;-71
2023/12/02 06:07:34;;;;;;;5.30;1.35;;;28.80;88.00;;;;;;5033906;28;20043;-72
2023/12/02 06:10:02;;;;;;;5.85;1.60;;;28.90;88.00;;;;;;5032619;28;20032;-72
2023/12/02 06:12:29;;;;;;;9.13;1.63;;;28.90;88.20;;;;;;5033233;28;20095;-71
2023/12/02 06:14:57;;;;;;;9.63;1.52;;;28.90;87.90;;;;;;5017888;28;20500;-71
2023/12/02 06:17:24;;;;;;;8.00;1.58;;;28.80;87.30;;;;;;5034907;28;20112;-71
2023/12/02 06:19:52;;;;;;;8.00;1.75;;;28.70;88.70;;;;;;5035660;28;20466;-71
2023/12/02 06:22:19;;;;;;;8.75;1.75;;;28.50;88.60;;;;;;5025611;28;20112;-71
2023/12/02 06:24:46;;;;;;;5.50;1.40;;;28.40;89.20;;;;;;5018711;28;20029;-71
2023/12/02 06:27:14;;;;;;;9.63;1.80;;;28.40;89.50;;;;;;5016981;28;20377;-71
2023/12/02 06:29:41;;;;;;;6.10;1.40;;;28.40;89.30;;;;;;5035360;28;20022;-71
2023/12/02 06:32:08;;;;;;;13.27;1.75;;;28.40;89.20;;;;;;5038704;28;20025;-71
2023/12/02 06:34:36;;;;;;;7.35;1.52;;;28.20;90.00;;;;;;5032256;28;20072;-71
2023/12/02 06:37:03;;;;;;;6.70;1.80;;;28.10;90.10;;;;;;5034267;28;20025;-71
2023/12/02 06:39:31;;;;;;;7.63;1.50;;;28.00;90.20;;;;;;5033423;28;20379;-72
2023/12/02 06:41:58;;;;;;;4.10;1.08;;;28.10;90.20;;;;;;5037665;28;20053;-72
2023/12/02 06:44:25;;;;;;;4.07;1.30;;;28.10;90.20;;;;;;5034222;28;20033;-72
2023/12/02 06:46:53;;;;;;;5.13;1.55;;;28.00;90.20;;;;;;5030645;28;20072;-71
2023/12/02 06:49:20;;;;;;;9.18;1.50;;;27.90;90.70;;;;;;5029853;28;20036;-71
2023/12/02 06:51:48;;;;;;;7.32;1.50;;;27.70;90.90;;;;;;5034763;28;20028;-72
2023/12/02 06:54:15;;;;;;;9.68;1.80;;;27.60;91.00;;;;;;5035313;28;20545;-72
2023/12/02 06:56:42;;;;;;;8.60;1.35;;;27.60;91.10;;;;;;5018327;28;20021;-71
2023/12/02 06:59:10;;;;;;;7.93;1.63;;;27.80;90.60;;;;;;5034800;28;20135;-72
2023/12/02 07:01:37;;;;;;;5.88;1.65;;;27.70;90.70;;;;;;5032555;28;20030;-71
2023/12/02 07:04:04;;;;;;;4.63;1.35;;;27.80;90.50;;;;;;5028303;28;20029;-70
2023/12/02 07:06:32;;;;;;;6.18;1.50;;;27.70;90.70;;;;;;5017467;28;20064;-71
2023/12/02 07:08:59;;;;;;;6.97;1.52;;;27.70;90.80;;;;;;5030328;28;20428;-71
2023/12/02 07:11:26;;;;;;;5.60;1.17;;;27.70;91.00;;;;;;5027826;28;20414;-72
2023/12/02 07:13:54;;;;;;;5.78;1.40;;;27.40;90.80;;;;;;5025329;28;20022;-71
2023/12/02 07:16:21;;;;;;;6.53;1.63;;;27.30;91.30;;;;;;5023474;28;20054;-71
2023/12/02 07:18:48;;;;;;;6.18;1.30;;;27.10;91.50;;;;;;5031868;28;20152;-72
2023/12/02 07:21:16;;;;;;;6.50;1.92;;;27.20;91.70;;;;;;5027543;28;20025;-72
2023/12/02 07:23:44;;;;;;;6.50;1.10;;;27.20;91.90;;;;;;5025914;28;20030;-71
2023/12/02 07:26:12;;;;;;;10.93;1.75;;;27.20;92.10;;;;;;5023018;28;20061;-73
2023/12/02 07:28:39;;;;;;;4.63;1.40;;;27.20;92.20;;;;;;5017183;28;20028;-71
2023/12/02 07:31:17;;;;;;;8.35;1.73;;;27.20;91.90;;;;;;5025862;28;20067;-70
2023/12/02 07:33:44;;;;;;;5.10;1.63;;;27.10;92.10;;;;;;5031473;28;20471;-72
2023/12/02 07:36:12;;;;;;;5.43;1.48;;;26.90;92.60;;;;;;5039724;28;20512;-72
2023/12/02 07:38:40;;;;;;;11.43;1.85;;;26.90;92.50;;;;;;5016696;28;20033;-72
2023/12/02 07:41:11;;;;;;;7.68;2.47;;;26.90;92.70;;;;;;5027594;28;20113;-72
2023/12/02 07:43:38;;;;;;;4.85;1.45;;;26.50;93.00;;;;;;5031665;28;20533;-71
2023/12/02 07:46:06;;;;;;;4.75;1.40;;;26.40;93.60;;;;;;5012592;28;20087;-72
2023/12/02 07:48:33;;;;;;;11.05;2.17;;;26.30;93.70;;;;;;5030240;28;20125;-72
2023/12/02 07:51:04;;;;;;;5.22;1.60;;;26.10;94.00;;;;;;5035324;28;20014;-72
2023/12/02 07:53:31;;;;;;;8.52;1.83;;;26.10;94.20;;;;;;5026733;28;20117;-72
2023/12/02 07:55:58;;;;;;;4.88;1.48;;;26.10;94.20;;;;;;5033421;28;20073;-72
2023/12/02 07:58:26;;;;;;;5.28;1.48;;;25.90;94.40;;;;;;5034874;28;20470;-71
2023/12/02 08:00:53;;;;;;;4.80;1.63;;;25.80;94.60;;;;;;5033978;28;20057;-72
2023/12/02 08:03:20;;;;;;;6.80;1.27;;;25.70;94.60;;;;;;5031892;28;20426;-72
2023/12/02 08:05:48;;;;;;;5.10;1.30;;;25.60;95.00;;;;;;5011826;28;20087;-71
2023/12/02 08:08:15;;;;;;;8.95;1.80;;;25.60;95.20;;;;;;5031205;28;20036;-72
2023/12/02 08:10:45;;;;;;;9.10;2.25;;;25.60;95.40;;;;;;5029662;28;20025;-72
2023/12/02 08:13:12;;;;;;;7.05;1.95;;;25.50;95.40;;;;;;5033830;28;20056;-72
2023/12/02 08:15:40;;;;;;;7.05;1.80;;;25.40;95.70;;;;;;5034382;28;20481;-71
2023/12/02 08:18:07;;;;;;;11.40;2.05;;;25.40;95.90;;;;;;5033427;28;20021;-70
2023/12/02 08:20:35;;;;;;;10.02;1.92;;;25.40;96.10;;;;;;5033755;28;20056;-71
2023/12/02 08:23:02;;;;;;;6.25;1.67;;;25.30;96.10;;;;;;5031131;28;20112;-71
2023/12/02 08:25:29;;;;;;;8.98;2.00;;;25.30;96.40;;;;;;5032885;28;20041;-70
2023/12/02 08:27:57;;;;;;;6.20;2.15;;;25.10;96.50;;;;;;5038386;28;20021;-71
2023/12/02 08:30:25;;;;;;;7.60;1.88;;;25.10;96.60;;;;;;5033134;28;20037;-71
2023/12/02 08:32:52;;;;;;;7.63;1.70;;;24.90;96.90;;;;;;5036584;28;20025;-71
2023/12/02 08:35:20;;;;;;;9.55;2.33;;;24.80;97.20;;;;;;5032105;28;20068;-71
2023/12/02 08:37:47;;;;;;;10.63;1.90;;;24.60;97.50;;;;;;5030066;28;20021;-72
2023/12/02 08:40:14;;;;;;;7.55;1.80;;;24.40;97.70;;;;;;5035444;28;20032;-71
2023/12/02 08:42:42;;;;;;;6.60;2.17;;;24.50;97.80;;;;;;5029905;28;20525;-72
2023/12/02 08:45:09;;;;;;;5.63;2.13;;;24.40;97.80;;;;;;5032750;28;20025;-71
2023/12/02 08:47:37;;;;;;;8.15;1.83;;;24.40;97.90;;;;;;5033082;28;20034;-71
2023/12/02 08:50:05;;;;;;;8.73;1.92;;;24.40;97.90;;;;;;5036126;28;20534;-71
2023/12/02 08:52:32;;;;;;;9.55;1.73;;;24.20;98.20;;;;;;5029774;28;20092;-72
2023/12/02 08:54:59;;;;;;;7.38;1.98;;;24.10;98.40;;;;;;5033536;28;20022;-70
2023/12/02 08:57:27;;;;;;;3.70;1.55;;;24.10;98.60;;;;;;5026129;28;20024;-71
2023/12/02 08:59:54;;;;;;;10.05;1.92;;;24.10;98.60;;;;;;5033370;28;20064;-71
2023/12/02 09:02:21;;;;;;;6.72;1.98;;;24.10;98.70;;;;;;5030104;28;20029;-71
2023/12/02 09:04:49;;;;;;;9.02;2.05;;;24.10;98.80;;;;;;5025436;28;20032;-71
2023/12/02 09:07:16;;;;;;;7.93;1.80;;;24.10;98.70;;;;;;5028714;28;20029;-71
2023/12/02 09:09:43;;;;;;;8.80;2.38;;;23.90;98.90;;;;;;5027694;28;20475;-73
2023/12/02 09:12:10;;;;;;;14.55;2.72;;;23.80;99.10;;;;;;5029058;28;20121;-71
2023/12/02 09:14:38;;;;;;;11.00;2.33;;;23.70;99.30;;;;;;5021438;28;20060;-71
2023/12/02 09:17:25;;;;;;;6.22;1.90;;;23.70;99.50;;;;;;5028972;28;20021;-70
2023/12/02 09:19:55;;;;;;;5.87;2.17;;;23.70;99.50;;;;;;5038997;28;20462;-71
2023/12/02 09:22:46;;;;;;;6.25;2.55;;;23.70;99.60;;;;;;5030149;28;20038;-71
2023/12/02 09:25:31;;;;;;;10.27;2.53;;;23.70;99.60;;;;;;5029558;28;20041;-72
2023/12/02 09:28:08;;;;;;;9.82;2.95;;;23.70;99.80;;;;;;5032476;28;20090;-72
2023/12/02 09:30:41;;;;;;;10.20;2.80;;;23.80;99.80;;;;;;5030987;28;20022;-72
2023/12/02 09:33:08;;;;;;;7.45;2.40;;;23.80;99.70;;;;;;5017154;28;20026;-72
2023/12/02 09:35:36;;;;;;;7.68;2.28;;;23.90;99.60;;;;;;5018914;28;20029;-72
2023/12/02 09:38:04;;;;;;;5.68;2.30;;;24.00;99.30;;;;;;5037023;28;20032;-70
2023/12/02 09:40:49;;;;;;;10.80;2.97;;;24.10;99.10;;;;;;5036991;28;20078;-71
2023/12/02 09:43:22;;;;;;;9.68;2.55;;;24.00;99.10;;;;;;5020954;28;20025;-71
2023/12/02 09:46:14;;;;;;;10.57;7.47;;;24.00;98.90;;;;;;5035124;28;20037;-70
2023/12/02 09:49:14;;;;;;;5.25;3.40;;;23.80;99.30;;;;;;4996651;28;20041;-71
2023/12/02 09:51:56;;;;;;;6.18;3.55;;;23.60;96.60;;;;;;5034543;28;20489;-69
2023/12/02 09:54:32;;;;;;;6.22;1.80;;;22.90;96.00;;;;;;5039447;28;20026;-68
2023/12/02 09:57:32;;;;;;;2.58;0.80;;;22.80;97.60;;;;;;5022629;28;20457;-69
2023/12/02 10:00:12;;;;;;;6.38;4.88;;;22.20;98.50;;;;;;5030292;28;20052;-68
2023/12/02 10:02:59;;;;;;;10.00;3.47;;;21.50;99.90;;;;;;5019202;28;20052;-68
2023/12/02 10:05:29;;;;;;;9.48;4.25;;;21.20;99.90;;;;;;5033557;28;20037;-69
2023/12/02 10:08:12;;;;;;;10.23;4.40;;;21.20;99.90;;;;;;5036805;28;20021;-68
2023/12/02 10:11:12;;;;;;;12.57;6.40;;;21.20;99.90;;;;;;5035322;28;20022;-70
2023/12/02 10:13:51;;;;;;;7.75;4.57;;;21.10;99.90;;;;;;5037504;28;20021;-69
2023/12/02 10:16:23;;;;;;;14.07;8.00;;;21.20;99.90;;;;;;5033669;28;20029;-68
2023/12/02 10:18:56;;;;;;;6.80;4.28;;;21.10;99.90;;;;;;5039374;28;20017;-68
2023/12/02 10:21:27;;;;;;;7.88;3.92;;;20.80;99.90;;;;;;5031909;28;20040;-69
2023/12/02 10:24:06;;;;;;;6.47;5.53;;;20.70;99.90;;;;;;5017430;28;20044;-68
2023/12/02 10:26:58;;;;;;;5.70;3.85;;;20.80;99.90;;;;;;5036353;28;20108;-69
2023/12/02 10:29:29;;;;;;;5.43;3.00;;;20.80;99.90;;;;;;5019981;28;20025;-70
2023/12/02 10:32:30;;;;;;;5.28;3.70;;;20.70;99.90;;;;;;5016134;28;20057;-69
2023/12/02 10:35:20;;;;;;;8.50;4.90;;;20.70;99.90;;;;;;5025610;28;20029;-70
2023/12/02 10:37:56;;;;;;;8.88;5.07;;;20.70;99.90;;;;;;5030273;28;20033;-70
2023/12/02 10:40:29;;;;;;;4.00;2.45;;;20.80;99.80;;;;;;5037149;28;20041;-70
2023/12/02 10:43:12;;;;;;;12.15;7.00;;;20.80;99.60;;;;;;5027809;28;20029;-70
2023/12/02 10:45:42;;;;;;;7.03;5.10;;;20.70;99.70;;;;;;5028958;28;20050;-70
2023/12/02 10:48:13;;;;;;;12.63;8.57;;;20.90;99.30;;;;;;5011752;28;20025;-70
2023/12/02 10:50:41;;;;;;;9.55;3.20;;;21.10;98.90;;;;;;5009875;28;20033;-69
2023/12/02 10:53:12;;;;;;;4.78;2.42;;;21.00;99.00;;;;;;5011301;28;20033;-70
2023/12/02 10:55:45;;;;;;;4.53;2.75;;;21.50;98.30;;;;;;5026092;28;20108;-70
2023/12/02 10:58:13;;;;;;;3.63;1.73;;;21.70;97.90;;;;;;5026465;28;20029;-70
2023/12/02 11:00:44;;;;;;;3.08;1.13;;;21.80;97.40;;;;;;5012210;28;20127;-71
2023/12/02 11:03:51;;;;;;;2.65;1.10;;;21.80;97.50;;;;;;5026602;28;20025;-71
2023/12/02 11:06:22;;;;;;;15.98;6.35;;;21.70;97.50;;;;;;4980650;28;20049;-71
2023/12/02 11:08:59;;;;;;;25.27;11.93;;;21.30;98.00;;;;;;5026997;28;20033;-71
2023/12/02 11:11:35;;;;;;;242.48;113.07;;;21.20;98.10;;;;;;5032072;28;20029;-70
2023/12/02 11:14:03;;;;;;;102.82;52.92;;;20.90;98.00;;;;;;5016223;28;20040;-70
2023/12/02 11:16:42;;;;;;;56.72;29.73;;;20.70;98.20;;;;;;5031247;28;20588;-71
2023/12/02 11:19:23;;;;;;;22.58;14.75;;;20.40;98.70;;;;;;5032819;28;20057;-71
2023/12/02 11:22:14;;;;;;;6.75;4.10;;;20.30;99.10;;;;;;5027953;28;20112;-73
2023/12/02 11:25:08;;;;;;;5.00;1.90;;;20.30;99.10;;;;;;5029748;28;20504;-70
2023/12/02 11:27:39;;;;;;;5.35;2.70;;;20.30;98.80;;;;;;5030992;28;20037;-71
2023/12/02 11:30:45;;;;;;;2.83;1.40;;;20.00;99.20;;;;;;5035760;28;20032;-71
2023/12/02 11:33:24;;;;;;;3.03;1.08;;;20.10;99.20;;;;;;5032669;28;20074;-74
2023/12/02 11:35:51;;;;;;;1.70;0.82;;;20.20;99.00;;;;;;5034055;28;20421;-71
2023/12/02 11:38:19;;;;;;;4.07;0.95;;;20.00;99.20;;;;;;5035196;28;20064;-71
2023/12/02 11:41:12;;;;;;;2.10;0.63;;;20.00;99.40;;;;;;5030576;28;20406;-71
2023/12/02 11:43:49;;;;;;;2.40;1.08;;;20.00;99.60;;;;;;5020379;28;20025;-71
2023/12/02 11:46:26;;;;;;;5.47;0.80;;;20.00;99.80;;;;;;5034449;28;20044;-71
2023/12/02 11:49:31;;;;;;;3.38;1.13;;;19.90;99.90;;;;;;5034891;28;20029;-72
2023/12/02 11:52:10;;;;;;;2.65;0.40;;;20.10;99.90;;;;;;5005295;28;20059;-72
2023/12/02 11:55:10;;;;;;;1.83;0.63;;;19.90;99.80;;;;;;5035496;28;20392;-71
2023/12/02 11:58:14;;;;;;;2.97;0.90;;;20.00;99.90;;;;;;5035090;28;20068;-71
2023/12/02 12:01:09;;;;;;;5.43;1.17;;;19.80;99.90;;;;;;5034467;28;20045;-71
2023/12/02 12:03:42;;;;;;;3.45;0.80;;;19.80;99.90;;;;;;5030191;28;20060;-71
2023/12/02 12:06:47;;;;;;;2.72;1.17;;;19.60;99.90;;;;;;5031249;28;20485;-71
2023/12/02 12:09:37;;;;;;;6.47;1.88;;;19.60;99.90;;;;;;5017826;28;20032;-72
2023/12/02 12:12:08;;;;;;;4.65;1.95;;;19.60;99.90;;;;;;5017315;28;20123;-71
2023/12/02 12:14:38;;;;;;;5.45;1.42;;;19.50;99.90;;;;;;5036326;28;20021;-72
2023/12/02 12:17:06;;;;;;;3.80;1.40;;;19.30;99.90;;;;;;5032837;28;20036;-71
2023/12/02 12:19:34;;;;;;;3.55;1.30;;;19.20;99.90;;;;;;5035705;28;20037;-71
2023/12/02 12:22:02;;;;;;;6.57;1.13;;;19.30;99.90;;;;;;5034875;28;20466;-71
2023/12/02 12:24:29;;;;;;;4.80;0.90;;;19.50;99.90;;;;;;5030779;28;20029;-71
2023/12/02 12:26:56;;;;;;;5.13;1.20;;;19.40;99.90;;;;;;5033971;28;20025;-71
2023/12/02 12:29:24;;;;;;;5.30;0.90;;;19.30;99.90;;;;;;5032312;28;20371;-71
2023/12/02 12:31:51;;;;;;;3.83;0.80;;;19.20;99.90;;;;;;5029840;28;20025;-72
2023/12/02 12:34:19;;;;;;;2.85;1.08;;;19.10;99.90;;;;;;5029982;28;20382;-71
2023/12/02 12:36:46;;;;;;;2.63;0.90;;;18.90;99.90;;;;;;5029153;28;20022;-71
2023/12/02 12:39:16;;;;;;;3.72;1.33;;;18.70;99.90;;;;;;5028432;28;20108;-71
2023/12/02 12:41:44;;;;;;;2.28;0.88;;;18.60;99.90;;;;;;5027276;28;20466;-71
2023/12/02 12:44:12;;;;;;;1.83;0.80;;;18.60;99.90;;;;;;5026723;28;20026;-72
2023/12/02 12:46:42;;;;;;;2.70;0.70;;;18.40;99.90;;;;;;5030037;28;20043;-71
2023/12/02 12:49:10;;;;;;;2.95;1.10;;;18.30;99.90;;;;;;5031394;28;20029;-71
2023/12/02 12:51:44;;;;;;;1.33;0.70;;;18.20;99.90;;;;;;5014667;28;20478;-70
2023/12/02 12:54:15;;;;;;;2.65;1.20;;;18.20;99.90;;;;;;5038933;28;20029;-71
2023/12/02 12:56:48;;;;;;;3.58;1.33;;;18.10;99.90;;;;;;5028706;28;20030;-70
2023/12/02 12:59:17;;;;;;;2.55;1.00;;;18.00;99.90;;;;;;5029789;28;20080;-70
2023/12/02 13:01:56;;;;;;;3.40;1.00;;;18.00;99.90;;;;;;5044235;28;20024;-71